Aérodrome :
LOGIN :

S'inscrire | Disclaimer

   EN    FR    IT 

 










Légende :    VFR   VFR Marginal   IFR   IFR Intensif   IFR Très Intensif
Visi : 
Plafond : 
>= 8 km
>= 3000ft
5 à 8 km
1000 à 3000 ft
1500m à 5 km
500 à 1000 ft
800 à 1500m
200 à 500 ft
< 800m
< 200 ft
Symboles :   Orages  Brouillard  Fortes neiges  Fortes précipitations  Vent > 20 kt
SIGMETs :   Divers  Orages  Givrage  Turbulence  Onde Orograph.  Cendres Volcan.







- Altitude de l'aérodrome : 74 ft
- Code IATA : LRH
- Voir les cartes d'approche


LFBH - La Rochelle Ile de Ré

DERNIER METAR :
  • 181930Z AUTO 25008KT 6000 -RA SCT009/// BKN013/// OVC020/// ///TCU 11/10 Q1012 TEMPO 22015G25KT 4000 -RA BKN015 OVC040

METARs EXPIRÉS :
  • 181900Z AUTO 21011KT 7000 -RA BKN015 OVC021 09/08 Q1012 TEMPO 22015G25KT 4000 -RA
  • 181830Z AUTO 20010KT 9000 -RA BKN026 BKN032 BKN038 09/08 Q1011 TEMPO 22015G25KT 4000 -RA
  • 181800Z AUTO 20012KT 9999 -RA BKN032/// BKN044/// OVC054/// ///TCU 10/08 Q1011 TEMPO 22015G25KT 4000 -RA OVC015
  • 181730Z AUTO 20013KT 9999 DZ BKN044 BKN052 BKN066 10/08 Q1011 TEMPO 22015G25KT 4000 -RA
  • 181700Z AUTO 20011KT 9999 -RA FEW044/// BKN070/// OVC090/// ///CB 10/07 Q1011 TEMPO 22015G25KT 4000 -RA OVC015

TAF AMD TAF LFBH
Valide du 18 à 19h jusqu'au 19 à 18h UTC


181925Z 1819/1918 20013KT 9999 BKN040
TEMPO 1819/1822 22015G25KT 4000 -RA BKN013 OVC040
PROB40
TEMPO 1819/1822 BKN008 OVC015
PROB40
TEMPO 1902/1916 23020G40KT 4000 SHRA FEW020CB BKN025TCU
ATIS : +33 5 46 00 13 92
Pas de NOTAMs connus pour ce terrain.
2 SIGMETs publiés pour la FIR Bordeaux (LFBB) :
 
Turbulence forte
LFBB SIGMET 9 VALID 181900/182200 LFPW
LFBB BORDEAUX FIR/UIR SEV TURB FCST WI N4230 E00030 - N4300 W00145 - N4330 W00145 - N4300 E00045 - N4230 E00030 SFC/FL080 STNR WKN=
Turbulence forte
LFBB SIGMET 7 VALID 181600/182000 LFPW
LFBB BORDEAUX FIR/UIR SEV TURB FCST WI N4500 E00245 - N4300 E00230 - N4330 E00115 - N4345 E00130 - N4345 E00200 - N4500 E00245 SFC/FL060 STNR WKN=



MET'MAP, la Météo Aéronautique d'un coup d'oeil ! - Copyright ORBIFLY Décembre 2007 - Disclaimer

ORBIFLY MET'MAP TEAM :

Programmation & Développement : Alexandra Zaïnal
Conception & Développement : Baudouin d'Aumeries
Co-Programmation & Développement : Marc-Olivier Méhu
Soutien technique & logistique : Manuel Goepfert

Contact : metmap@orbifly.com




SOURCES & CREDITS :

   NOAA